Time;durP1;ratioP1;P1;durP2;ratioP2;P2;SDS_P1;SDS_P2;PMS_P1;PMS_P2;Temp;Humidity;BMP_temperature;BMP_pressure;BME280_temperature;BME280_humidity;BME280_pressure;Samples;Min_cycle;Max_cycle;Signal;HPM_P1;HPM_P2
2023/09/09 04:22:32;;;;;;;21.13;14.10;;;;;;;15.44;100.00;100261.19;5089195;28;20362;-65
2023/09/09 04:24:58;;;;;;;20.02;13.70;;;;;;;15.54;100.00;100254.59;5088178;28;20032;-65
2023/09/09 04:27:23;;;;;;;18.70;14.50;;;;;;;15.51;100.00;100257.69;5088099;28;20093;-65
2023/09/09 04:29:49;;;;;;;20.88;13.90;;;;;;;15.56;100.00;100263.28;5088029;28;20375;-65
2023/09/09 04:32:14;;;;;;;18.98;13.65;;;;;;;15.60;100.00;100267.22;5087699;28;20109;-65
2023/09/09 04:34:40;;;;;;;18.30;13.10;;;;;;;15.58;100.00;100262.03;5088015;28;20040;-65
2023/09/09 04:37:05;;;;;;;16.85;12.55;;;;;;;15.57;100.00;100268.44;5087836;28;20140;-65
2023/09/09 04:39:31;;;;;;;16.58;12.20;;;;;;;15.61;100.00;100261.63;5087867;28;20037;-66
2023/09/09 04:41:56;;;;;;;18.80;13.40;;;;;;;15.57;100.00;100270.28;5087502;28;20114;-65
2023/09/09 04:44:22;;;;;;;18.98;13.85;;;;;;;15.55;100.00;100272.34;5089088;28;20047;-65
2023/09/09 04:46:47;;;;;;;18.77;13.15;;;;;;;15.60;100.00;100269.88;5087646;28;20043;-63
2023/09/09 04:49:13;;;;;;;20.50;12.65;;;;;;;15.57;100.00;100268.44;5087727;28;20033;-65
2023/09/09 04:51:38;;;;;;;16.50;12.45;;;;;;;15.56;100.00;100271.31;5087601;28;20116;-66
2023/09/09 04:54:04;;;;;;;17.65;12.85;;;;;;;15.50;100.00;100277.50;5087324;28;20105;-64
2023/09/09 04:56:30;;;;;;;15.40;12.38;;;;;;;15.48;100.00;100281.22;5087819;28;20394;-65
2023/09/09 04:58:55;;;;;;;17.52;13.25;;;;;;;15.55;100.00;100275.88;5088749;28;20115;-65
2023/09/09 05:01:21;;;;;;;16.98;12.70;;;;;;;15.52;100.00;100288.84;5087328;28;20406;-65
2023/09/09 05:03:46;;;;;;;14.52;11.57;;;;;;;15.51;100.00;100281.84;5088431;28;20043;-65
2023/09/09 05:06:12;;;;;;;15.93;12.30;;;;;;;15.44;100.00;100279.97;5087268;28;20151;-65
2023/09/09 05:08:37;;;;;;;18.92;12.23;;;;;;;15.46;100.00;100279.78;5088692;28;20090;-66
2023/09/09 05:11:03;;;;;;;15.45;11.80;;;;;;;15.41;100.00;100277.72;5087450;28;20036;-65
2023/09/09 05:13:31;;;;;;;16.00;12.20;;;;;;;15.48;100.00;100285.78;5087038;28;20052;-65
2023/09/09 05:15:58;;;;;;;17.05;12.55;;;;;;;15.50;100.00;100282.88;5087161;28;20440;-66
2023/09/09 05:18:23;;;;;;;17.30;12.63;;;;;;;15.46;100.00;100285.16;5087173;28;20127;-65
2023/09/09 05:20:49;;;;;;;17.80;12.15;;;;;;;15.43;100.00;100289.06;5086937;28;20048;-66
2023/09/09 05:23:15;;;;;;;17.38;11.63;;;;;;;15.42;100.00;100290.09;5086771;28;20036;-66
2023/09/09 05:25:40;;;;;;;15.02;12.02;;;;;;;15.41;100.00;100296.50;5086962;28;20066;-64
2023/09/09 05:28:06;;;;;;;15.10;12.05;;;;;;;15.46;100.00;100296.72;5088188;28;20056;-66
2023/09/09 05:30:31;;;;;;;15.75;11.88;;;;;;;15.43;100.00;100293.59;5088221;28;20028;-64
2023/09/09 05:32:57;;;;;;;20.45;15.20;;;;;;;15.54;100.00;100295.69;5078431;28;20047;-63
2023/09/09 05:35:22;;;;;;;20.70;14.52;;;;;;;15.60;100.00;100299.41;5073244;28;20036;-63
2023/09/09 05:37:47;;;;;;;20.88;14.82;;;;;;;15.66;100.00;100301.31;5073277;28;20487;-66
2023/09/09 05:40:13;;;;;;;20.17;14.32;;;;;;;15.66;100.00;100298.63;5073285;28;20044;-66
2023/09/09 05:42:39;;;;;;;19.88;14.10;;;;;;;15.69;100.00;100303.59;5074272;28;20043;-65
2023/09/09 05:45:08;;;;;;;17.38;13.13;;;;;;;15.68;100.00;100296.56;5065418;28;20143;-64
2023/09/09 05:47:34;;;;;;;19.17;13.18;;;;;;;15.78;100.00;100313.13;5071568;28;20060;-66
2023/09/09 05:49:59;;;;;;;20.73;14.43;;;;;;;15.82;100.00;100306.28;5072973;28;20063;-65
2023/09/09 05:52:25;;;;;;;19.60;13.23;;;;;;;15.90;100.00;100311.44;5074061;28;20024;-65
2023/09/09 05:54:50;;;;;;;18.98;14.05;;;;;;;15.94;100.00;100315.38;5073122;28;20086;-65
2023/09/09 05:57:16;;;;;;;15.20;12.02;;;;;;;15.97;100.00;100311.44;5072868;28;20135;-65
2023/09/09 05:59:41;;;;;;;15.93;12.82;;;;;;;15.99;100.00;100314.75;5072941;28;20114;-63
2023/09/09 06:02:09;;;;;;;15.10;11.85;;;;;;;16.00;100.00;100317.25;5072506;28;20499;-64
2023/09/09 06:04:34;;;;;;;15.20;11.85;;;;;;;16.10;100.00;100310.59;5072858;28;20097;-64
2023/09/09 06:07:00;;;;;;;14.60;11.57;;;;;;;16.14;100.00;100315.38;5070970;28;20029;-51
2023/09/09 06:09:25;;;;;;;16.48;12.20;;;;;;;16.22;100.00;100315.16;5072854;28;20395;-53
2023/09/09 06:11:51;;;;;;;14.02;11.63;;;;;;;16.33;100.00;100311.00;5071920;28;20028;-54
2023/09/09 06:14:16;;;;;;;14.40;11.85;;;;;;;16.38;100.00;100316.59;5072576;28;20408;-51
2023/09/09 06:16:42;;;;;;;18.20;12.10;;;;;;;16.45;100.00;100320.09;5072781;28;20102;-54
2023/09/09 06:19:07;;;;;;;15.25;12.40;;;;;;;16.53;100.00;100325.25;5072566;28;20513;-51
2023/09/09 06:21:33;;;;;;;15.95;12.63;;;;;;;16.64;100.00;100320.25;5072352;28;20036;-51
2023/09/09 06:23:59;;;;;;;15.40;13.05;;;;;;;16.73;100.00;100327.91;5072206;28;20039;-51
2023/09/09 06:26:30;;;;;;;16.73;12.13;;;;;;;16.83;100.00;100327.47;5072280;28;20406;-53
2023/09/09 06:28:56;;;;;;;17.50;13.40;;;;;;;16.94;100.00;100334.88;5072432;28;20106;-51
2023/09/09 06:31:21;;;;;;;15.57;11.85;;;;;;;17.06;100.00;100332.34;5072311;28;20127;-50
2023/09/09 06:33:47;;;;;;;16.38;13.20;;;;;;;17.16;100.00;100338.13;5072034;28;20037;-51
2023/09/09 06:36:13;;;;;;;16.30;12.70;;;;;;;17.26;100.00;100341.16;5072077;28;20040;-51
2023/09/09 06:38:40;;;;;;;20.20;15.60;;;;;;;17.34;100.00;100335.53;5072229;28;20033;-54
2023/09/09 06:41:05;;;;;;;18.98;15.40;;;;;;;17.41;100.00;100342.72;5073404;28;20071;-65
2023/09/09 06:43:31;;;;;;;23.52;15.98;;;;;;;17.46;100.00;100341.03;5072527;28;20052;-65
2023/09/09 06:45:56;;;;;;;18.75;14.88;;;;;;;17.50;100.00;100338.75;5072490;28;20048;-65
2023/09/09 06:48:22;;;;;;;24.45;17.88;;;;;;;17.60;100.00;100342.66;5072219;28;20044;-65
2023/09/09 06:50:47;;;;;;;19.38;14.90;;;;;;;17.65;100.00;100350.06;5073075;28;20031;-65
2023/09/09 06:53:14;;;;;;;23.02;17.90;;;;;;;17.73;100.00;100352.50;5072836;28;20067;-65
2023/09/09 06:55:41;;;;;;;18.15;14.10;;;;;;;17.81;100.00;100346.88;5072984;28;20033;-65
2023/09/09 06:58:07;;;;;;;19.00;14.10;;;;;;;17.92;100.00;100348.03;5072908;28;20040;-65
2023/09/09 07:00:33;;;;;;;20.45;14.50;;;;;;;18.00;100.00;100349.66;5064050;28;20045;-64
2023/09/09 07:02:59;;;;;;;18.50;14.27;;;;;;;18.09;100.00;100353.72;5062473;28;20043;-65
2023/09/09 07:05:25;;;;;;;20.92;14.45;;;;;;;18.18;100.00;100358.59;5062881;28;20033;-64
2023/09/09 07:07:50;;;;;;;17.20;14.07;;;;;;;18.26;100.00;100354.00;5061373;28;20039;-65
2023/09/09 07:10:15;;;;;;;20.13;14.73;;;;;;;18.33;100.00;100352.91;5053580;28;20495;-64
2023/09/09 07:12:42;;;;;;;21.52;15.07;;;;;;;18.42;100.00;100353.44;5062143;28;20068;-65
2023/09/09 07:15:08;;;;;;;20.77;15.23;;;;;;;18.48;100.00;100351.72;5061342;28;20037;-65
2023/09/09 07:17:34;;;;;;;24.05;16.73;;;;;;;18.56;100.00;100354.94;5061259;28;20705;-65
2023/09/09 07:19:59;;;;;;;19.50;15.45;;;;;;;18.66;100.00;100360.69;5062448;28;20024;-66
2023/09/09 07:22:25;;;;;;;19.83;15.45;;;;;;;18.73;100.00;100360.63;5062342;28;20037;-65
2023/09/09 07:24:50;;;;;;;20.60;16.30;;;;;;;18.80;100.00;100365.94;5060961;28;20494;-66
2023/09/09 07:27:16;;;;;;;22.95;16.40;;;;;;;18.91;100.00;100362.50;5062733;28;20060;-65
2023/09/09 07:29:41;;;;;;;21.98;16.73;;;;;;;18.99;100.00;100364.91;5060870;28;20040;-65
2023/09/09 07:32:07;;;;;;;20.83;16.65;;;;;;;19.09;100.00;100364.34;5060903;28;20055;-65
2023/09/09 07:34:34;;;;;;;22.88;15.95;;;;;;;19.21;100.00;100371.47;5072068;28;20089;-65
2023/09/09 07:37:00;;;;;;;22.33;16.52;;;;;;;19.30;100.00;100363.06;5072439;28;20046;-65
2023/09/09 07:39:28;;;;;;;20.08;16.20;;;;;;;19.36;100.00;100365.66;5072232;28;20036;-65
2023/09/09 07:41:53;;;;;;;21.50;16.00;;;;;;;19.46;100.00;100365.13;5072044;28;20036;-66
2023/09/09 07:44:19;;;;;;;22.67;18.20;;;;;;;19.63;100.00;100365.38;5072154;28;20466;-65
2023/09/09 07:46:44;;;;;;;20.92;16.08;;;;;;;19.71;100.00;100368.56;5072237;28;20111;-65
2023/09/09 07:49:10;;;;;;;19.98;16.20;;;;;;;19.83;100.00;100362.38;5072343;28;20032;-65
2023/09/09 07:51:35;;;;;;;25.23;15.77;;;;;;;20.03;100.00;100376.41;5071963;28;20082;-65
2023/09/09 07:54:01;;;;;;;19.52;14.27;;;;;;;20.13;100.00;100373.13;5071856;28;20093;-65
2023/09/09 07:56:26;;;;;;;20.67;14.35;;;;;;;20.18;100.00;100371.38;5071699;28;20070;-65
2023/09/09 07:58:51;;;;;;;18.52;14.48;;;;;;;20.23;100.00;100374.19;5072095;28;20051;-66
2023/09/09 08:01:17;;;;;;;19.98;14.77;;;;;;;20.37;100.00;100371.28;5072031;28;20044;-65
2023/09/09 08:03:42;;;;;;;18.00;15.18;;;;;;;20.40;100.00;100368.06;5071882;28;20040;-66
2023/09/09 08:06:08;;;;;;;19.13;13.57;;;;;;;20.46;100.00;100367.16;5071901;28;20113;-65
2023/09/09 08:08:35;;;;;;;17.38;14.63;;;;;;;20.53;100.00;100376.00;5071921;28;20109;-65
2023/09/09 08:11:01;;;;;;;;;;;;;;;20.69;100.00;100380.72;5072434;28;20432;-66
2023/09/09 08:13:27;;;;;;;15.90;12.05;;;;;;;20.75;100.00;100370.81;5071574;28;19922;-64
2023/09/09 08:15:52;;;;;;;15.90;12.93;;;;;;;20.89;100.00;100374.09;5071743;28;20036;-65
2023/09/09 08:18:17;;;;;;;15.25;12.35;;;;;;;20.97;100.00;100381.84;5071917;28;20029;-66
2023/09/09 08:20:44;;;;;;;16.95;12.18;;;;;;;21.10;100.00;100379.69;5071820;28;20665;-65
2023/09/09 08:23:09;;;;;;;14.65;12.70;;;;;;;21.29;100.00;100383.09;5071615;28;20040;-65
2023/09/09 08:25:35;;;;;;;14.63;11.95;;;;;;;21.33;100.00;100386.97;5071749;28;20094;-65
2023/09/09 08:28:01;;;;;;;12.10;10.75;;;;;;;21.53;100.00;100385.72;5071790;28;20090;-65
2023/09/09 08:30:27;;;;;;;14.77;12.20;;;;;;;21.53;100.00;100385.72;5071508;28;20067;-65
2023/09/09 08:32:53;;;;;;;13.93;11.70;;;;;;;21.66;100.00;100380.03;5071484;28;20487;-66
2023/09/09 08:35:18;;;;;;;15.63;12.00;;;;;;;21.68;100.00;100384.13;5071499;28;20094;-65
2023/09/09 08:37:44;;;;;;;14.57;11.43;;;;;;;21.81;100.00;100388.41;5071475;28;20036;-65
2023/09/09 08:40:10;;;;;;;12.40;10.32;;;;;;;21.95;100.00;100387.03;5071513;28;20557;-66
2023/09/09 08:42:47;;;;;;;13.27;10.43;;;;;;;22.12;100.00;100384.38;5071188;28;20119;-66
2023/09/09 08:45:42;;;;;;;12.52;10.48;;;;;;;22.20;100.00;100385.88;5071460;28;20364;-66
2023/09/09 08:48:09;;;;;;;11.02;9.85;;;;;;;22.29;100.00;100389.81;5071594;28;20475;-66
2023/09/09 08:50:39;;;;;;;12.55;10.02;;;;;;;22.28;100.00;100376.50;5071515;28;20123;-66
2023/09/09 08:53:06;;;;;;;13.50;10.27;;;;;;;22.38;100.00;100385.63;5071254;28;20554;-66
2023/09/09 08:55:32;;;;;;;11.43;9.88;;;;;;;22.56;100.00;100384.53;5071218;28;20479;-65
2023/09/09 08:57:58;;;;;;;12.38;9.63;;;;;;;22.65;98.83;100384.94;5071541;28;20441;-65
2023/09/09 09:00:33;;;;;;;10.98;9.68;;;;;;;22.69;99.19;100384.19;5071352;28;20036;-65
2023/09/09 09:03:00;;;;;;;11.95;10.00;;;;;;;22.75;99.20;100388.59;5071101;28;20024;-65
2023/09/09 09:05:26;;;;;;;11.98;9.40;;;;;;;22.89;100.00;100389.13;5071366;28;20084;-66
2023/09/09 09:07:52;;;;;;;11.55;9.68;;;;;;;22.97;98.77;100383.25;5072999;28;20043;-66
2023/09/09 09:10:18;;;;;;;10.80;9.48;;;;;;;23.03;97.51;100386.84;5075070;28;20028;-66
2023/09/09 09:12:44;;;;;;;10.40;9.30;;;;;;;23.17;95.75;100384.56;5074906;28;20048;-66
2023/09/09 09:15:10;;;;;;;10.68;9.43;;;;;;;23.27;94.42;100385.50;5074957;28;20029;-66
2023/09/09 09:17:40;;;;;;;10.98;9.88;;;;;;;23.35;94.79;100386.97;5074982;28;20037;-66
2023/09/09 09:20:10;;;;;;;15.98;9.77;;;;;;;23.44;93.72;100385.44;5074910;28;20044;-66
2023/09/09 09:22:38;;;;;;;10.82;9.40;;;;;;;23.62;93.67;100376.16;5074640;28;20025;-66
2023/09/09 09:25:04;;;;;;;9.90;8.70;;;;;;;23.95;91.81;100383.28;5074878;28;20128;-66
2023/09/09 09:27:31;;;;;;;10.00;9.00;;;;;;;24.06;89.42;100371.41;5074745;28;20067;-66
2023/09/09 09:29:57;;;;;;;12.43;9.60;;;;;;;24.14;90.44;100377.44;5074794;28;20032;-66
2023/09/09 09:32:22;;;;;;;11.02;9.00;;;;;;;24.24;92.09;100372.06;5074366;28;20226;-66
2023/09/09 09:34:50;;;;;;;10.75;8.95;;;;;;;24.51;92.34;100367.41;5074719;28;20090;-66
2023/09/09 09:37:15;;;;;;;11.20;8.25;;;;;;;24.61;88.93;100364.75;5074605;28;20491;-66
2023/09/09 09:39:43;;;;;;;12.50;8.50;;;;;;;24.82;89.85;100370.31;5056824;28;20075;-66
2023/09/09 09:42:12;;;;;;;;;;;;;;;25.07;89.34;100366.94;5074856;28;20483;-66
2023/09/09 09:44:37;;;;;;;13.93;8.63;;;;;;;25.35;84.36;100368.38;5074441;28;19920;-66
2023/09/09 09:47:08;;;;;;;10.82;8.40;;;;;;;25.47;83.31;100359.97;5074594;28;20037;-66
2023/09/09 09:49:37;;;;;;;11.60;8.38;;;;;;;25.73;87.19;100360.88;5074541;28;20446;-66
2023/09/09 09:52:03;;;;;;;10.73;8.68;;;;;;;25.89;79.68;100357.09;5074145;28;20068;-66
2023/09/09 09:54:30;;;;;;;11.48;8.68;;;;;;;26.10;81.68;100360.63;5074402;28;20063;-66
2023/09/09 09:57:00;;;;;;;9.77;8.15;;;;;;;26.32;81.23;100363.06;5074191;28;20090;-66
2023/09/09 09:59:29;;;;;;;8.48;7.57;;;;;;;26.56;80.17;100353.22;5074331;28;20037;-66
2023/09/09 10:01:55;;;;;;;8.27;7.47;;;;;;;26.98;75.14;100357.47;5074004;28;20124;-66
2023/09/09 10:04:22;;;;;;;8.85;8.00;;;;;;;27.23;70.93;100356.56;5074099;28;20047;-66
2023/09/09 10:06:49;;;;;;;10.02;7.72;;;;;;;27.94;70.45;100352.59;5074016;28;20169;-66
2023/09/09 10:09:33;;;;;;;7.63;6.93;;;;;;;28.33;62.48;100358.84;5074320;28;20123;-66
2023/09/09 10:12:10;;;;;;;7.93;7.15;;;;;;;28.93;59.85;100364.00;5073736;28;20483;-66
2023/09/09 10:14:38;;;;;;;10.18;7.32;;;;;;;29.43;56.08;100353.47;5074000;28;20055;-64
2023/09/09 10:17:08;;;;;;;11.02;7.07;;;;;;;29.93;53.44;100353.81;5073848;28;20064;-66
2023/09/09 10:19:37;;;;;;;7.40;6.45;;;;;;;30.25;51.33;100355.78;5073801;28;20036;-66
2023/09/09 10:22:07;;;;;;;7.55;6.85;;;;;;;30.69;49.96;100352.53;5073473;28;20071;-66
2023/09/09 10:24:38;;;;;;;7.45;6.75;;;;;;;31.24;48.58;100352.53;5073981;28;20426;-66
2023/09/09 10:27:04;;;;;;;8.05;6.05;;;;;;;31.68;48.39;100352.91;5073707;28;20045;-66
2023/09/09 10:29:31;;;;;;;7.38;6.57;;;;;;;32.06;46.83;100343.19;5073701;28;20388;-66
2023/09/09 10:32:08;;;;;;;7.18;6.38;;;;;;;31.79;46.62;100335.06;5073350;28;20041;-64
2023/09/09 10:34:36;;;;;;;10.05;6.30;;;;;;;31.77;48.06;100340.84;5073587;28;20119;-65
2023/09/09 10:37:03;;;;;;;6.60;5.90;;;;;;;32.51;46.67;100345.88;5073540;28;20028;-65
2023/09/09 10:39:30;;;;;;;6.43;5.82;;;;;;;32.87;46.16;100339.41;5073486;28;20483;-65
2023/09/09 10:41:57;;;;;;;6.82;6.13;;;;;;;32.50;47.53;100336.00;5073201;28;20487;-65
2023/09/09 10:44:23;;;;;;;6.40;5.70;;;;;;;32.49;45.15;100330.81;5073414;28;20544;-65
2023/09/09 10:46:54;;;;;;;5.87;5.37;;;;;;;32.24;45.92;100330.31;5073582;28;20033;-65
2023/09/09 10:49:24;;;;;;;6.15;5.63;;;;;;;32.76;43.87;100332.53;5073404;28;20060;-65
2023/09/09 10:51:50;;;;;;;6.70;6.00;;;;;;;33.25;42.17;100336.06;5072968;28;20609;-65
2023/09/09 10:54:17;;;;;;;6.40;5.70;;;;;;;33.66;41.38;100319.88;5073269;28;20085;-65
2023/09/09 10:56:52;;;;;;;6.82;5.75;;;;;;;33.99;41.34;100327.66;5073079;28;20032;-65
2023/09/09 10:59:18;;;;;;;5.97;5.47;;;;;;;34.58;40.23;100327.84;5073127;28;20439;-65
2023/09/09 11:01:44;;;;;;;;;;;;;;;34.80;39.04;100327.56;5073386;28;20032;-66
2023/09/09 11:04:21;;;;;;;5.75;5.20;;;;;;;35.37;37.63;100330.97;5072870;28;20278;-67
2023/09/09 11:07:19;;;;;;;7.32;5.72;;;;;;;35.20;37.70;100323.59;5072874;28;20045;-66
2023/09/09 11:09:51;;;;;;;6.10;5.55;;;;;;;34.96;38.04;100325.06;5049755;28;20052;-66
2023/09/09 11:12:25;;;;;;;7.10;5.97;;;;;;;35.44;36.77;100321.00;5072775;28;20434;-66
2023/09/09 11:15:00;;;;;;;5.82;5.20;;;;;;;34.99;39.71;100327.16;5072874;28;20483;-66
2023/09/09 11:17:29;;;;;;;6.20;5.60;;;;;;;35.94;35.42;100324.81;5072723;28;20484;-67
2023/09/09 11:19:54;;;;;;;5.65;5.15;;;;;;;35.94;35.78;100320.09;5072734;28;20032;-66
2023/09/09 11:22:21;;;;;;;5.70;5.03;;;;;;;36.52;34.11;100320.91;5072328;28;20031;-67
2023/09/09 11:24:48;;;;;;;5.43;4.93;;;;;;;35.79;37.03;100317.91;5072475;28;20040;-66
2023/09/09 11:27:14;;;;;;;6.22;5.65;;;;;;;35.84;36.97;100315.75;5072275;28;20033;-66
2023/09/09 11:29:48;;;;;;;;;;;;;;;36.40;35.77;100318.94;5072823;28;20064;-66
2023/09/09 11:32:23;;;;;;;6.47;5.88;;;;;;;36.74;33.84;100319.63;5071930;28;19916;-68
2023/09/09 11:34:52;;;;;;;6.82;5.78;;;;;;;36.97;33.78;100311.66;5072722;28;20581;-67
2023/09/09 11:37:17;;;;;;;6.90;5.28;;;;;;;36.85;33.29;100323.56;5072337;28;20028;-67
2023/09/09 11:39:44;;;;;;;6.90;5.83;;;;;;;37.04;32.52;100314.69;5072359;28;20101;-66
2023/09/09 11:42:10;;;;;;;7.25;5.30;;;;;;;36.56;34.08;100309.91;5071864;28;20031;-67
2023/09/09 11:44:43;;;;;;;5.72;4.80;;;;;;;37.00;32.19;100310.16;5072321;28;20398;-67
2023/09/09 11:47:09;;;;;;;6.13;4.60;;;;;;;37.31;31.41;100307.56;5072324;28;20040;-67
2023/09/09 11:49:38;;;;;;;7.10;4.63;;;;;;;36.95;32.89;100300.91;5072241;28;20029;-67
2023/09/09 11:52:04;;;;;;;6.85;5.22;;;;;;;37.60;31.28;100302.84;5071778;28;20514;-67
2023/09/09 11:54:29;;;;;;;5.75;5.07;;;;;;;37.68;32.02;100297.13;5072129;28;20033;-66
2023/09/09 11:57:08;;;;;;;7.72;5.40;;;;;;;37.22;32.23;100292.97;5071995;28;20130;-67
2023/09/09 11:59:50;;;;;;;5.60;5.10;;;;;;;37.07;33.31;100297.31;5071200;28;20075;-67
2023/09/09 12:02:20;;;;;;;5.63;4.97;;;;;;;37.71;32.01;100287.28;5071815;28;20064;-67
2023/09/09 12:04:59;;;;;;;6.20;5.50;;;;;;;37.81;31.85;100280.41;5072021;28;20036;-67
2023/09/09 12:07:33;;;;;;;5.45;4.93;;;;;;;37.46;33.01;100295.72;5071918;28;20043;-67
2023/09/09 12:10:03;;;;;;;5.53;4.95;;;;;;;37.85;33.03;100286.88;5072055;28;20074;-68
2023/09/09 12:12:29;;;;;;;5.35;4.85;;;;;;;37.85;30.83;100282.13;5070357;28;20036;-67
2023/09/09 12:14:57;;;;;;;5.40;4.70;;;;;;;38.11;30.38;100283.59;5072108;28;20039;-67
2023/09/09 12:17:23;;;;;;;4.78;4.28;;;;;;;37.96;30.51;100277.69;5071843;28;20033;-67
2023/09/09 12:19:58;;;;;;;5.68;4.45;;;;;;;38.16;30.51;100277.78;5071862;28;20048;-67
2023/09/09 12:22:35;;;;;;;6.10;5.50;;;;;;;38.18;30.50;100276.25;5070394;28;20036;-66
2023/09/09 12:25:03;;;;;;;14.77;9.80;;;;;;;38.30;30.46;100278.16;5071723;28;20552;-67
2023/09/09 12:27:45;;;;;;;5.80;5.30;;;;;;;38.46;30.99;100272.56;5071777;28;20502;-67
2023/09/09 12:30:31;;;;;;;6.70;5.20;;;;;;;38.76;29.45;100281.28;5071842;28;20068;-67
2023/09/09 12:33:03;;;;;;;10.75;5.10;;;;;;;38.42;29.64;100274.50;5071436;28;20040;-67
2023/09/09 12:35:32;;;;;;;6.85;5.22;;;;;;;38.03;30.20;100274.28;5071642;28;20032;-67
2023/09/09 12:37:58;;;;;;;5.18;4.57;;;;;;;38.56;29.37;100277.59;5071652;28;20056;-67
2023/09/09 12:40:23;;;;;;;5.15;4.50;;;;;;;38.73;29.53;100276.41;5071827;28;20452;-66
2023/09/09 12:42:49;;;;;;;6.00;4.87;;;;;;;38.70;28.76;100277.13;5072764;28;20040;-65
2023/09/09 12:45:14;;;;;;;6.17;4.37;;;;;;;39.02;29.29;100280.66;5075557;28;20048;-66
2023/09/09 12:47:39;;;;;;;9.10;4.10;;;;;;;38.72;28.93;100272.84;5075681;28;20112;-67
2023/09/09 12:50:05;;;;;;;5.43;4.23;;;;;;;38.66;29.45;100274.25;5075554;28;20052;-66
2023/09/09 12:52:32;;;;;;;6.05;4.32;;;;;;;39.11;28.13;100281.25;5075271;28;20043;-66
2023/09/09 12:54:58;;;;;;;6.80;3.47;;;;;;;39.07;28.49;100275.63;5075380;28;20041;-67
2023/09/09 12:57:23;;;;;;;5.27;4.00;;;;;;;39.20;27.80;100286.66;5075439;28;20047;-67
2023/09/09 12:59:48;;;;;;;6.38;4.30;;;;;;;39.24;27.77;100281.94;5075663;28;20064;-67
2023/09/09 13:02:14;;;;;;;5.53;3.47;;;;;;;39.03;27.84;100280.28;5075128;28;20048;-68
2023/09/09 13:04:39;;;;;;;5.83;3.67;;;;;;;39.28;27.52;100277.28;5075299;28;20122;-67
2023/09/09 13:07:05;;;;;;;5.70;3.70;;;;;;;39.13;29.33;100262.22;5075447;28;20039;-67
2023/09/09 13:09:31;;;;;;;6.22;3.47;;;;;;;39.49;28.40;100274.91;5075233;28;20032;-67
2023/09/09 13:11:56;;;;;;;6.47;3.90;;;;;;;39.22;27.83;100271.19;5074749;28;20406;-67
2023/09/09 13:14:22;;;;;;;6.63;3.97;;;;;;;39.21;27.60;100277.13;5075101;28;20198;-67
2023/09/09 13:16:47;;;;;;;6.30;4.13;;;;;;;39.21;27.78;100274.34;5074948;28;20036;-67
2023/09/09 13:19:13;;;;;;;4.43;4.03;;;;;;;39.31;26.89;100270.97;5075032;28;20517;-67
2023/09/09 13:21:38;;;;;;;5.72;3.90;;;;;;;39.23;27.94;100261.66;5074835;28;20039;-68
2023/09/09 13:24:04;;;;;;;6.90;3.67;;;;;;;39.46;27.20;100267.31;5074653;28;20068;-67
2023/09/09 13:26:29;;;;;;;5.32;3.85;;;;;;;39.44;27.63;100271.63;5074871;28;20036;-67
2023/09/09 13:28:54;;;;;;;6.93;3.80;;;;;;;39.64;26.88;100256.50;5074773;28;20040;-66
2023/09/09 13:31:20;;;;;;;3.92;3.50;;;;;;;39.67;27.54;100257.78;5074708;28;20101;-66
2023/09/09 13:33:45;;;;;;;4.17;3.47;;;;;;;38.59;28.35;100253.81;5074343;28;20040;-67
2023/09/09 13:36:10;;;;;;;4.20;3.80;;;;;;;39.16;27.96;100261.50;5074573;28;20286;-66
2023/09/09 13:38:36;;;;;;;6.97;4.40;;;;;;;39.43;28.49;100256.06;5074595;28;20793;-67
2023/09/09 13:41:01;;;;;;;6.55;4.10;;;;;;;39.80;26.74;100250.84;5074561;28;20078;-67
2023/09/09 13:43:27;;;;;;;6.10;4.28;;;;;;;39.11;27.82;100244.25;5074406;28;20521;-66
2023/09/09 13:45:53;;;;;;;6.88;4.95;;;;;;;38.52;27.67;100244.13;5074567;28;20037;-66
2023/09/09 13:48:18;;;;;;;5.30;3.92;;;;;;;38.88;27.74;100242.19;5074415;28;20048;-67
2023/09/09 13:50:44;;;;;;;6.43;4.20;;;;;;;38.78;28.54;100240.78;5074322;28;20036;-67
2023/09/09 13:53:09;;;;;;;7.90;3.72;;;;;;;38.59;27.86;100239.91;5073601;28;20127;-66
2023/09/09 13:55:35;;;;;;;6.33;3.93;;;;;;;38.41;28.30;100231.97;5074364;28;20086;-66
2023/09/09 13:58:01;;;;;;;4.30;3.60;;;;;;;37.54;29.52;100237.56;5074286;28;20497;-67
2023/09/09 14:00:26;;;;;;;4.75;3.50;;;;;;;36.71;31.46;100228.75;5074342;28;20036;-67
2023/09/09 14:02:51;;;;;;;5.63;3.80;;;;;;;36.82;31.29;100229.91;5073960;28;20086;-67
2023/09/09 14:05:17;;;;;;;4.93;3.70;;;;;;;36.13;32.08;100236.41;5074108;28;20495;-67
2023/09/09 14:07:42;;;;;;;7.87;4.20;;;;;;;35.26;32.93;100228.13;5074053;28;20048;-66
2023/09/09 14:10:08;;;;;;;10.67;4.30;;;;;;;34.61;33.18;100227.59;5073956;28;20028;-67
2023/09/09 14:12:34;;;;;;;5.30;4.32;;;;;;;34.44;33.75;100222.19;5073752;28;20453;-67
2023/09/09 14:14:59;;;;;;;6.15;4.07;;;;;;;34.13;34.42;100217.75;5073939;28;20033;-66
2023/09/09 14:17:25;;;;;;;8.30;5.17;;;;;;;34.17;34.79;100218.72;5073844;28;20533;-66
2023/09/09 14:19:50;;;;;;;6.60;5.60;;;;;;;34.07;34.77;100219.06;5074116;28;20040;-67
2023/09/09 14:22:16;;;;;;;9.83;6.27;;;;;;;34.07;35.39;100219.06;5073444;28;20491;-66
2023/09/09 14:24:41;;;;;;;6.43;4.80;;;;;;;33.84;35.47;100221.22;5073911;28;20407;-65
2023/09/09 14:27:06;;;;;;;7.37;4.50;;;;;;;33.48;36.06;100221.63;5073714;28;20644;-65
2023/09/09 14:29:32;;;;;;;7.33;5.50;;;;;;;33.29;36.61;100221.16;5073680;28;20041;-65
2023/09/09 14:31:57;;;;;;;5.93;3.97;;;;;;;33.05;38.01;100216.91;5073223;28;20036;-65
2023/09/09 14:34:22;;;;;;;6.83;4.20;;;;;;;32.55;37.02;100220.09;5073734;28;20036;-65
2023/09/09 14:36:48;;;;;;;5.33;3.90;;;;;;;32.66;38.31;100218.63;5073472;28;20044;-64
2023/09/09 14:39:14;;;;;;;7.20;4.27;;;;;;;32.66;37.46;100215.88;5073626;28;20029;-64
2023/09/09 14:41:39;;;;;;;6.60;4.27;;;;;;;32.34;38.49;100221.78;5073466;28;20039;-63
2023/09/09 14:44:05;;;;;;;4.57;3.87;;;;;;;32.47;37.83;100220.03;5073182;28;20048;-65
2023/09/09 14:46:30;;;;;;;6.30;4.33;;;;;;;32.56;37.79;100218.94;5073180;28;20045;-64
2023/09/09 14:49:01;;;;;;;8.23;4.90;;;;;;;32.40;38.24;100212.25;5073296;28;20041;-64
2023/09/09 14:51:31;;;;;;;5.25;3.78;;;;;;;32.42;38.14;100218.25;5073124;28;20122;-65
2023/09/09 14:54:00;;;;;;;6.80;3.90;;;;;;;32.29;38.25;100217.22;5072824;28;20036;-64
2023/09/09 14:56:26;;;;;;;6.65;3.85;;;;;;;32.12;39.03;100215.19;5073035;28;20131;-66
2023/09/09 14:58:51;;;;;;;8.60;4.37;;;;;;;32.19;39.00;100211.97;5073076;28;20076;-65
2023/09/09 15:01:17;;;;;;;6.73;4.40;;;;;;;32.17;38.51;100213.44;5072942;28;20032;-65
2023/09/09 15:03:42;;;;;;;8.17;4.17;;;;;;;31.93;39.31;100213.81;5072708;28;20033;-65
2023/09/09 15:06:07;;;;;;;7.77;4.00;;;;;;;32.01;39.70;100211.09;5071986;28;20036;-65
2023/09/09 15:08:33;;;;;;;7.57;4.07;;;;;;;31.90;39.60;100218.03;5072986;28;20028;-65
2023/09/09 15:10:58;;;;;;;5.80;4.83;;;;;;;31.52;40.53;100215.66;5072744;28;20496;-65
2023/09/09 15:13:23;;;;;;;4.97;4.00;;;;;;;31.54;40.10;100216.16;5072591;28;20473;-65
2023/09/09 15:15:49;;;;;;;6.70;3.87;;;;;;;31.67;40.20;100211.69;5073162;28;20040;-65
2023/09/09 15:18:15;;;;;;;6.87;4.00;;;;;;;31.59;39.87;100218.78;5072703;28;20032;-65
2023/09/09 15:20:40;;;;;;;8.20;5.33;;;;;;;31.45;39.69;100215.28;5072571;28;20040;-64
2023/09/09 15:23:06;;;;;;;5.57;3.70;;;;;;;31.48;39.55;100209.16;5072433;28;20044;-64
2023/09/09 15:25:31;;;;;;;8.13;4.60;;;;;;;31.46;39.41;100205.09;5072662;28;20131;-64
2023/09/09 15:27:56;;;;;;;5.70;3.87;;;;;;;31.50;40.31;100208.84;5072630;28;20037;-65
2023/09/09 15:30:23;;;;;;;5.77;4.17;;;;;;;31.42;40.49;100204.09;5072538;28;20120;-65
2023/09/09 15:32:49;;;;;;;;;;;;;;;31.46;40.31;100207.84;5073322;28;20073;-66
2023/09/09 15:35:17;;;;;;;6.10;5.10;;;;;;;31.19;40.86;100208.75;5073043;28;19916;-67
2023/09/09 15:37:42;;;;;;;7.10;4.43;;;;;;;31.29;40.68;100203.03;5072395;28;20491;-66